createdAt,value
2019-05-15T00:01:12.343Z,15.58
2019-05-15T00:03:42.924Z,14.30
2019-05-15T00:06:13.620Z,14.33
2019-05-15T00:08:43.709Z,15.85
2019-05-15T00:11:14.301Z,14.78
2019-05-15T00:13:45.063Z,16.07
2019-05-15T00:16:17.980Z,15.18
2019-05-15T00:18:48.954Z,15.15
2019-05-15T00:21:52.488Z,15.63
2019-05-15T00:24:23.305Z,16.37
2019-05-15T00:26:54.523Z,15.30
2019-05-15T00:29:25.012Z,16.60
2019-05-15T00:31:58.769Z,15.88
2019-05-15T00:34:28.749Z,16.15
2019-05-15T00:36:59.093Z,17.20
2019-05-15T00:39:30.500Z,15.50
2019-05-15T00:42:01.846Z,16.87
2019-05-15T00:44:33.245Z,15.32
2019-05-15T00:47:03.612Z,16.93
2019-05-15T00:49:34.906Z,16.90
2019-05-15T00:52:11.761Z,16.30
2019-05-15T00:54:38.916Z,16.40
2019-05-15T00:57:09.471Z,15.90
2019-05-15T00:59:39.704Z,16.87
2019-05-15T01:02:12.159Z,16.73
2019-05-15T01:04:42.978Z,16.65
2019-05-15T01:07:15.240Z,16.80
2019-05-15T01:09:45.915Z,17.45
2019-05-15T01:12:18.494Z,16.93
2019-05-15T01:14:49.377Z,16.67
2019-05-15T01:17:22.112Z,16.95
2019-05-15T01:19:54.014Z,17.12
2019-05-15T01:22:24.265Z,16.35
2019-05-15T01:24:54.815Z,16.87
2019-05-15T01:27:26.234Z,17.32
2019-05-15T01:29:58.716Z,16.17
2019-05-15T01:32:28.822Z,17.60
2019-05-15T01:35:02.189Z,16.30
2019-05-15T01:37:34.892Z,15.80
2019-05-15T01:40:08.837Z,17.10
2019-05-15T01:42:43.236Z,16.65
2019-05-15T01:45:16.355Z,17.15
2019-05-15T01:47:48.034Z,17.37
2019-05-15T01:50:18.597Z,18.17
2019-05-15T01:52:49.332Z,17.55
2019-05-15T01:55:20.733Z,18.92
2019-05-15T01:57:51.795Z,17.73
2019-05-15T02:00:23.426Z,18.65
2019-05-15T02:02:53.646Z,17.85
2019-05-15T02:05:23.847Z,18.90
2019-05-15T02:07:58.400Z,17.32
2019-05-15T02:10:29.198Z,17.60
2019-05-15T02:12:59.711Z,17.48
2019-05-15T02:15:29.890Z,17.77
2019-05-15T02:18:01.652Z,17.00
2019-05-15T02:20:33.042Z,16.60
2019-05-15T02:23:03.790Z,18.12
2019-05-15T02:25:38.794Z,16.82
2019-05-15T02:28:09.842Z,16.07
2019-05-15T02:30:41.142Z,17.85
2019-05-15T02:33:11.787Z,17.52
2019-05-15T02:35:44.215Z,16.15
2019-05-15T02:38:15.793Z,17.37
2019-05-15T02:40:49.167Z,15.58
2019-05-15T02:43:19.121Z,17.73
2019-05-15T02:45:51.270Z,16.82
2019-05-15T02:48:22.436Z,16.48
2019-05-15T02:50:54.786Z,16.57
2019-05-15T02:53:30.038Z,16.15
2019-05-15T02:56:01.104Z,15.50
2019-05-15T02:58:31.168Z,16.62
2019-05-15T03:01:02.399Z,15.15
2019-05-15T03:03:33.452Z,16.48
2019-05-15T03:06:05.456Z,16.15
2019-05-15T03:08:35.674Z,16.48
2019-05-15T03:11:09.627Z,15.53
2019-05-15T03:13:41.998Z,14.38
2019-05-15T03:16:14.359Z,13.60
2019-05-15T03:18:46.006Z,16.20
2019-05-15T03:21:18.765Z,14.70
2019-05-15T03:23:53.499Z,14.25
2019-05-15T03:26:25.877Z,14.18
2019-05-15T03:28:59.026Z,14.95
2019-05-15T03:31:49.022Z,14.63
2019-05-15T03:34:04.055Z,14.63
2019-05-15T03:36:35.872Z,14.83
2019-05-15T03:39:09.688Z,14.58
2019-05-15T03:41:39.498Z,14.75
2019-05-15T03:44:09.700Z,15.38
2019-05-15T03:46:40.681Z,14.58
2019-05-15T03:49:11.898Z,14.85
2019-05-15T03:51:46.176Z,14.40
2019-05-15T03:54:18.947Z,15.72
2019-05-15T03:56:50.864Z,15.03
2019-05-15T03:59:24.423Z,14.00
2019-05-15T04:02:00.005Z,14.28
2019-05-15T04:04:33.074Z,15.40
2019-05-15T04:07:03.954Z,13.78
2019-05-15T04:09:38.868Z,13.43
2019-05-15T04:12:13.767Z,14.65
2019-05-15T04:14:49.835Z,14.87
2019-05-15T04:17:20.336Z,14.58
2019-05-15T04:19:55.562Z,14.28
2019-05-15T04:22:28.793Z,13.83
2019-05-15T04:24:59.472Z,15.25
2019-05-15T04:27:32.841Z,14.20
2019-05-15T04:30:05.862Z,13.65
2019-05-15T04:32:39.779Z,13.43
2019-05-15T04:35:11.885Z,14.43
2019-05-15T04:37:42.973Z,14.23
2019-05-15T04:40:14.594Z,13.28
2019-05-15T04:42:49.626Z,14.30
2019-05-15T04:45:19.574Z,14.63
2019-05-15T04:47:54.128Z,14.75
2019-05-15T04:50:28.793Z,14.40
2019-05-15T04:53:01.292Z,14.35
2019-05-15T04:55:39.906Z,13.60
2019-05-15T04:58:10.771Z,14.05
2019-05-15T05:00:52.794Z,13.62
2019-05-15T05:03:24.420Z,13.93
2019-05-15T05:05:54.922Z,12.55
2019-05-15T05:08:28.980Z,12.95
2019-05-15T05:11:00.313Z,12.43
2019-05-15T05:13:30.959Z,12.70
2019-05-15T05:16:03.303Z,13.20
2019-05-15T05:18:34.725Z,12.07
2019-05-15T05:21:07.740Z,12.58
2019-05-15T05:23:41.602Z,12.43
2019-05-15T05:26:12.590Z,12.70
2019-05-15T05:28:44.414Z,12.10
2019-05-15T05:31:15.033Z,12.40
2019-05-15T05:33:48.802Z,12.00
2019-05-15T05:36:20.103Z,11.83
2019-05-15T05:38:50.144Z,12.43
2019-05-15T05:41:21.797Z,12.15
2019-05-15T05:43:55.281Z,11.73
2019-05-15T05:46:29.659Z,11.10
2019-05-15T05:49:08.074Z,13.03
2019-05-15T05:51:39.715Z,12.13
2019-05-15T05:54:12.171Z,12.60
2019-05-15T05:56:44.916Z,12.63
2019-05-15T05:59:18.506Z,12.30
2019-05-15T06:01:52.278Z,12.37
2019-05-15T06:04:23.725Z,12.58
2019-05-15T06:07:07.137Z,11.43
2019-05-15T06:09:29.108Z,12.00
2019-05-15T06:11:59.841Z,12.65
2019-05-15T06:14:33.393Z,10.90
2019-05-15T06:17:05.283Z,11.75
2019-05-15T06:19:38.617Z,12.47
2019-05-15T06:22:10.222Z,12.07
2019-05-15T06:24:42.460Z,12.10
2019-05-15T06:27:12.866Z,12.33
2019-05-15T06:29:45.136Z,11.10
2019-05-15T06:32:19.418Z,11.57
2019-05-15T06:34:52.980Z,11.95
2019-05-15T06:37:28.539Z,11.65
2019-05-15T06:40:02.518Z,10.72
2019-05-15T06:42:35.460Z,10.68
2019-05-15T06:45:08.288Z,10.45
2019-05-15T06:47:42.959Z,10.10
2019-05-15T06:50:17.975Z,10.68
2019-05-15T06:52:50.314Z,9.55
2019-05-15T06:55:21.573Z,9.63
2019-05-15T06:57:53.778Z,8.90
2019-05-15T07:00:28.221Z,10.95
2019-05-15T07:03:00.834Z,10.35
2019-05-15T07:05:33.554Z,10.38
2019-05-15T07:08:05.465Z,10.13
2019-05-15T07:10:38.926Z,9.90
2019-05-15T07:13:12.824Z,9.63
2019-05-15T07:15:45.941Z,9.60
2019-05-15T07:18:19.860Z,10.45
2019-05-15T07:20:51.048Z,9.68
2019-05-15T07:23:27.106Z,9.90
2019-05-15T07:25:58.753Z,9.83
2019-05-15T07:28:34.859Z,9.45
2019-05-15T07:31:11.257Z,9.90
2019-05-15T07:33:43.633Z,9.35
2019-05-15T07:36:14.607Z,9.55
2019-05-15T07:38:48.520Z,10.65
2019-05-15T07:41:24.230Z,8.80
2019-05-15T07:43:58.410Z,8.90
2019-05-15T07:46:31.533Z,9.90
2019-05-15T07:49:03.241Z,9.50
2019-05-15T07:51:34.767Z,8.75
2019-05-15T07:54:09.251Z,9.80
2019-05-15T07:56:41.484Z,9.65
2019-05-15T07:59:15.135Z,9.55
2019-05-15T08:01:48.842Z,9.43
2019-05-15T08:04:28.787Z,8.25
2019-05-15T08:06:58.931Z,9.45
2019-05-15T08:09:30.445Z,9.28
2019-05-15T08:12:03.432Z,9.60
2019-05-15T08:14:38.680Z,9.40
2019-05-15T08:17:09.060Z,9.05
2019-05-15T08:19:40.032Z,8.53
2019-05-15T08:22:11.006Z,9.00
2019-05-15T08:24:42.795Z,10.05
2019-05-15T08:27:14.512Z,8.65
2019-05-15T08:29:48.550Z,9.03
2019-05-15T08:32:19.036Z,8.85
2019-05-15T08:34:51.809Z,10.03
2019-05-15T08:37:23.966Z,10.13
2019-05-15T08:39:55.612Z,9.28
2019-05-15T08:42:28.096Z,9.08
2019-05-15T08:44:58.999Z,9.68
2019-05-15T08:47:30.879Z,8.73
2019-05-15T08:50:01.632Z,10.58
2019-05-15T08:52:33.332Z,9.78
2019-05-15T08:55:20.184Z,9.95
2019-05-15T08:57:55.928Z,10.25
2019-05-15T09:00:25.711Z,10.13
2019-05-15T09:02:58.318Z,10.40
2019-05-15T09:05:30.956Z,10.25
2019-05-15T09:08:02.944Z,9.28
2019-05-15T09:10:33.972Z,10.15
2019-05-15T09:13:05.320Z,10.32
2019-05-15T09:15:39.521Z,10.25
2019-05-15T09:18:16.009Z,11.97
2019-05-15T09:20:44.119Z,10.63
2019-05-15T09:23:14.510Z,11.80
2019-05-15T09:25:45.415Z,11.25
2019-05-15T09:28:18.931Z,10.82
2019-05-15T09:30:51.647Z,10.60
2019-05-15T09:33:25.586Z,10.72
2019-05-15T09:36:00.266Z,12.20
2019-05-15T09:38:32.489Z,11.18
2019-05-15T09:41:08.695Z,11.63
2019-05-15T09:43:42.311Z,10.58
2019-05-15T09:46:13.844Z,11.35
2019-05-15T09:48:51.253Z,10.58
2019-05-15T09:51:22.273Z,11.18
2019-05-15T09:53:54.379Z,11.73
2019-05-15T09:56:25.253Z,12.07
2019-05-15T09:58:58.180Z,10.70
2019-05-15T10:01:30.813Z,11.12
2019-05-15T10:04:08.144Z,11.53
2019-05-15T10:06:40.099Z,11.20
2019-05-15T10:09:14.250Z,11.45
2019-05-15T10:11:45.955Z,12.90
2019-05-15T10:14:19.469Z,11.78
2019-05-15T10:16:55.080Z,12.65
2019-05-15T10:19:29.784Z,14.28
2019-05-15T10:22:03.163Z,14.45
2019-05-15T10:24:34.843Z,14.50
2019-05-15T10:27:08.759Z,14.55
2019-05-15T10:29:40.737Z,16.20
2019-05-15T10:32:12.006Z,15.32
2019-05-15T10:34:45.702Z,14.38
2019-05-15T10:37:21.357Z,13.78
2019-05-15T10:39:54.495Z,12.58
2019-05-15T10:42:25.506Z,12.63
2019-05-15T10:44:58.929Z,11.20
2019-05-15T10:47:30.852Z,11.40
2019-05-15T10:50:02.524Z,10.40
2019-05-15T10:52:33.324Z,9.03
2019-05-15T10:55:08.912Z,7.90
2019-05-15T10:57:44.179Z,7.55
2019-05-15T11:00:15.072Z,8.10
2019-05-15T11:02:50.351Z,7.62
2019-05-15T11:05:37.379Z,6.45
2019-05-15T11:07:58.935Z,7.28
2019-05-15T11:10:34.939Z,6.70
2019-05-15T11:13:08.812Z,6.67
2019-05-15T11:15:42.657Z,7.23
2019-05-15T11:18:15.293Z,7.60
2019-05-15T11:20:48.758Z,6.70
2019-05-15T11:23:20.337Z,6.92
2019-05-15T11:25:52.595Z,6.80
2019-05-15T11:28:31.808Z,6.83
2019-05-15T11:31:03.769Z,7.08
2019-05-15T11:33:38.496Z,6.92
2019-05-15T11:36:09.714Z,7.20
2019-05-15T11:38:40.770Z,7.15
2019-05-15T11:41:14.398Z,6.30
2019-05-15T11:43:49.285Z,6.87
2019-05-15T11:46:20.413Z,7.08
2019-05-15T11:48:54.097Z,7.05
2019-05-15T11:51:29.229Z,8.00
2019-05-15T11:54:01.013Z,6.67
2019-05-15T11:56:32.678Z,7.42
2019-05-15T11:59:03.593Z,8.23
2019-05-15T12:01:34.835Z,7.15
2019-05-15T12:04:09.142Z,7.40
2019-05-15T12:06:41.963Z,8.20
2019-05-15T12:09:14.165Z,7.28
2019-05-15T12:11:46.107Z,8.50
2019-05-15T12:14:19.654Z,8.40
2019-05-15T12:17:05.136Z,8.05
2019-05-15T12:19:28.975Z,8.05
2019-05-15T12:22:01.493Z,8.98
2019-05-15T12:24:36.891Z,7.55
2019-05-15T12:27:15.199Z,8.88
2019-05-15T12:29:41.568Z,9.18
2019-05-15T12:34:49.525Z,8.70
2019-05-15T12:37:21.626Z,9.18
2019-05-15T12:39:25.958Z,9.08
2019-05-15T13:00:32.792Z,8.38
2019-05-15T13:03:03.222Z,8.33
2019-05-15T13:05:35.056Z,8.15
2019-05-15T13:08:08.348Z,7.53
2019-05-15T13:10:40.341Z,8.10
2019-05-15T13:13:12.168Z,8.08
2019-05-15T13:15:48.098Z,7.37
2019-05-15T13:18:18.552Z,7.65
2019-05-15T13:20:50.013Z,7.67
2019-05-15T13:23:21.141Z,7.35
2019-05-15T13:25:52.729Z,8.30
2019-05-15T13:28:24.804Z,8.05
2019-05-15T13:30:59.559Z,8.08
2019-05-15T13:33:33.418Z,7.72
2019-05-15T13:36:10.103Z,8.00
2019-05-15T13:38:48.474Z,7.35
2019-05-15T13:41:29.699Z,7.53
2019-05-15T13:44:02.326Z,7.72
2019-05-15T13:46:38.124Z,8.28
2019-05-15T13:49:10.543Z,7.40
2019-05-15T13:51:43.240Z,7.10
2019-05-15T13:54:14.884Z,7.75
2019-05-15T13:56:48.623Z,6.92
2019-05-15T13:59:22.847Z,7.90
2019-05-15T14:01:53.966Z,6.72
2019-05-15T14:04:25.923Z,7.58
2019-05-15T14:06:58.777Z,7.35
2019-05-15T14:09:34.058Z,7.95
2019-05-15T14:12:11.594Z,8.33
2019-05-15T14:14:42.433Z,6.45
2019-05-15T14:17:13.240Z,6.95
2019-05-15T14:19:44.389Z,7.12
2019-05-15T14:22:16.893Z,6.25
2019-05-15T14:24:50.612Z,6.10
2019-05-15T14:27:21.489Z,6.58
2019-05-15T14:29:58.060Z,7.60
2019-05-15T14:32:37.705Z,6.30
2019-05-15T14:35:03.950Z,6.72
2019-05-15T14:37:36.232Z,6.22
2019-05-15T14:40:12.400Z,6.62
2019-05-15T14:42:48.345Z,5.87
2019-05-15T14:45:21.559Z,6.12
2019-05-15T14:47:54.438Z,6.70
2019-05-15T14:50:25.616Z,6.42
2019-05-15T14:52:58.590Z,6.22
2019-05-15T14:55:34.854Z,6.78
2019-05-15T14:58:08.375Z,7.62
2019-05-15T15:00:41.860Z,6.55
2019-05-15T15:03:15.499Z,7.70
2019-05-15T15:05:51.289Z,8.20
2019-05-15T15:08:25.309Z,7.95
2019-05-15T15:10:59.442Z,7.65
2019-05-15T15:13:30.326Z,7.85
2019-05-15T15:16:05.361Z,8.10
2019-05-15T15:18:40.690Z,8.38
2019-05-15T15:21:12.279Z,8.55
2019-05-15T15:23:42.742Z,8.28
2019-05-15T15:26:15.825Z,8.73
2019-05-15T15:28:48.938Z,8.35
2019-05-15T15:31:21.457Z,8.25
2019-05-15T15:33:57.959Z,9.48
2019-05-15T15:36:30.782Z,7.95
2019-05-15T15:39:08.108Z,8.73
2019-05-15T15:41:44.738Z,9.73
2019-05-15T15:44:20.974Z,10.10
2019-05-15T15:46:58.902Z,9.93
2019-05-15T15:49:33.760Z,9.70
2019-05-15T15:52:10.291Z,9.83
2019-05-15T15:54:45.880Z,11.45
2019-05-15T15:57:28.372Z,10.85
2019-05-15T16:00:04.525Z,11.28
2019-05-15T16:02:40.960Z,13.90
2019-05-15T16:05:15.537Z,13.28
2019-05-15T16:07:49.917Z,13.43
2019-05-15T16:10:23.631Z,12.13
2019-05-15T16:13:05.429Z,12.23
2019-05-15T16:15:41.500Z,13.72
2019-05-15T16:18:18.139Z,12.85
2019-05-15T16:20:57.952Z,13.08
2019-05-15T16:23:38.528Z,14.30
2019-05-15T16:26:19.282Z,13.72
2019-05-15T16:29:01.592Z,15.88
2019-05-15T16:31:40.989Z,15.53
2019-05-15T16:34:18.793Z,14.70
2019-05-15T16:36:58.699Z,16.20
2019-05-15T16:39:44.086Z,16.15
2019-05-15T16:46:29.185Z,20.82
2019-05-15T16:49:13.472Z,18.70
2019-05-15T16:51:49.277Z,16.70
2019-05-15T16:54:38.291Z,19.62
2019-05-15T16:57:18.435Z,18.98
2019-05-15T16:59:58.636Z,18.77
2019-05-15T17:02:40.667Z,19.52
2019-05-15T17:05:21.258Z,18.95
2019-05-15T17:07:52.098Z,19.67
2019-05-15T17:10:51.995Z,20.88
2019-05-15T17:13:24.336Z,21.33
2019-05-15T17:15:59.951Z,22.70
2019-05-15T17:18:33.191Z,22.13
2019-05-15T17:21:09.540Z,21.70
2019-05-15T17:23:39.941Z,21.93
2019-05-15T17:26:14.868Z,24.45
2019-05-15T17:28:48.052Z,24.45
2019-05-15T17:31:23.825Z,23.22
2019-05-15T17:33:58.233Z,23.42
2019-05-15T17:36:31.953Z,23.83
2019-05-15T17:39:03.689Z,24.20
2019-05-15T17:41:35.651Z,25.00
2019-05-15T17:44:10.091Z,22.52
2019-05-15T17:46:48.957Z,23.25
2019-05-15T17:49:24.303Z,25.85
2019-05-15T17:51:58.084Z,24.00
2019-05-15T17:54:49.084Z,23.75
2019-05-15T17:57:22.506Z,26.20
2019-05-15T17:59:53.661Z,25.12
2019-05-15T18:02:28.538Z,23.62
2019-05-15T18:04:59.842Z,24.02
2019-05-15T18:07:31.893Z,26.62
2019-05-15T18:10:08.468Z,25.60
2019-05-15T18:13:19.380Z,24.40
2019-05-15T18:15:53.184Z,25.37
2019-05-15T18:18:35.537Z,23.87
2019-05-15T18:21:08.825Z,24.72
2019-05-15T18:23:40.685Z,25.97
2019-05-15T18:26:15.491Z,25.55
2019-05-15T18:28:48.895Z,24.07
2019-05-15T18:31:20.095Z,23.83
2019-05-15T18:33:53.689Z,23.75
2019-05-15T18:36:25.663Z,25.08
2019-05-15T18:39:25.355Z,24.85
2019-05-15T18:41:58.366Z,24.98
2019-05-15T18:44:33.298Z,24.55
2019-05-15T18:47:10.877Z,24.98
2019-05-15T18:49:41.829Z,24.75
2019-05-15T18:52:18.197Z,24.45
2019-05-15T18:54:49.873Z,33.10
2019-05-15T18:57:24.240Z,32.08
2019-05-15T18:59:58.030Z,27.85
2019-05-15T19:02:29.261Z,25.97
2019-05-15T19:05:02.227Z,24.80
2019-05-15T19:07:32.914Z,23.80
2019-05-15T19:10:03.990Z,24.27
2019-05-15T19:12:48.433Z,25.45
2019-05-15T19:15:21.712Z,24.35
2019-05-15T19:17:58.575Z,24.85
2019-05-15T19:20:32.470Z,24.12
2019-05-15T19:23:04.206Z,24.00
2019-05-15T19:25:35.167Z,24.85
2019-05-15T19:28:08.469Z,26.97
2019-05-15T19:30:40.611Z,26.90
2019-05-15T19:54:14.535Z,27.80
2019-05-15T19:56:53.644Z,26.20
2019-05-15T19:59:25.902Z,26.42
2019-05-15T20:02:00.206Z,24.98
2019-05-15T20:04:32.232Z,25.48
2019-05-15T20:07:02.887Z,24.47
2019-05-15T20:09:34.469Z,25.02
2019-05-15T20:12:09.038Z,24.80
